This is the latest recevied weather packets stored in our database for station/object KR4BRU. If no packets are shown the sender has not sent any weather packets the latest 10 day(s).
| Time | Temp. | Humidity | Pressure | Rain* | Wind** | Luminosity | Snow |
|---|---|---|---|---|---|---|---|
| 1777733456 | 20° C | 30% | 1012.1 hPa | 0 mm | - | 863 W/m² | - |
| 1777732854 | 19.44° C | 30% | 1012.1 hPa | 0 mm | - | 712 W/m² | - |
| 1777732249 | 18.89° C | 32% | 1012.2 hPa | 0 mm | - | 652 W/m² | - |
| 1777731648 | 18.33° C | 34% | 1012.1 hPa | 0 mm | - | 614 W/m² | - |
| 1777731044 | 17.78° C | 36% | 1012.1 hPa | 0 mm | - | 599 W/m² | - |
| 1777730444 | 17.78° C | 37% | 1012 hPa | 0 mm | - | 537 W/m² | - |
| 1777729842 | 18.33° C | 36% | 1012.3 hPa | 0 mm | - | 511 W/m² | - |
| 1777729241 | 17.78° C | 39% | 1012.1 hPa | 0 mm | - | 460 W/m² | - |
| 1777728640 | 16.67° C | 41% | 1012.2 hPa | 0 mm | - | 416 W/m² | - |
| 1777728040 | 16.11° C | 45% | 1012 hPa | 0 mm | - | 384 W/m² | - |
| 1777727440 | 15° C | 47% | 1011.9 hPa | 0 mm | - | 326 W/m² | - |
| 1777726835 | 15° C | 47% | 1011.9 hPa | 0 mm | - | 122 W/m² | - |
| 1777726234 | 13.89° C | 51% | 1012 hPa | 0 mm | - | 135 W/m² | - |
| 1777725634 | 13.89° C | 52% | 1012 hPa | 0 mm | - | 111 W/m² | - |
| 1777725028 | 13.33° C | 52% | 1011.5 hPa | 0 mm | - | 91 W/m² | - |
| 1777724428 | 13.33° C | 53% | 1011.7 hPa | 0 mm | - | 69 W/m² | - |
| 1777723828 | 12.78° C | 53% | 1011.6 hPa | 0 mm | - | 57 W/m² | - |
| 1777723228 | 12.78° C | 54% | 1011.7 hPa | 0 mm | - | 42 W/m² | - |
| 1777722627 | 12.78° C | 55% | 1011.5 hPa | 0 mm | - | 37 W/m² | - |
| 1777722027 | 12.78° C | 55% | 1011.4 hPa | 0 mm | - | 18 W/m² | - |
| 1777721423 | 12.78° C | 54% | 1011.4 hPa | 0 mm | - | 11 W/m² | - |
| 1777720823 | 12.78° C | 54% | 1011.4 hPa | 0 mm | - | 10 W/m² | - |
| 1777720218 | 12.78° C | 54% | 1011.2 hPa | 0 mm | - | 7 W/m² | - |
| 1777719613 | 12.78° C | 52% | 1011 hPa | 0 mm | - | 4 W/m² | - |
| 1777719014 | 12.78° C | 52% | 1010.9 hPa | 0 mm | - | 1 W/m² | - |
* Rain latest hour (hover to see other rain measurements)
** Current wind speed in m/s (hover to see current wind gust speed)